sensor_id;sensor_type;location;lat;lon;timestamp;temperature;humidity
37594;DHT22;23441;50.856;6.076;2022-10-17T00:02:03;15.90;99.90
37594;DHT22;23441;50.856;6.076;2022-10-17T00:04:29;15.90;99.90
37594;DHT22;23441;50.856;6.076;2022-10-17T00:06:54;15.90;99.90
37594;DHT22;23441;50.856;6.076;2022-10-17T00:09:20;16.00;99.90
37594;DHT22;23441;50.856;6.076;2022-10-17T00:11:46;16.00;99.90
37594;DHT22;23441;50.856;6.076;2022-10-17T00:14:12;16.10;99.90
37594;DHT22;23441;50.856;6.076;2022-10-17T00:16:37;16.30;99.90
37594;DHT22;23441;50.856;6.076;2022-10-17T00:19:04;16.30;99.90
37594;DHT22;23441;50.856;6.076;2022-10-17T00:21:30;16.30;99.90
37594;DHT22;23441;50.856;6.076;2022-10-17T00:23:56;16.30;99.90
37594;DHT22;23441;50.856;6.076;2022-10-17T00:26:23;16.20;99.90
37594;DHT22;23441;50.856;6.076;2022-10-17T00:28:50;16.30;99.90
37594;DHT22;23441;50.856;6.076;2022-10-17T00:31:18;16.30;99.90
37594;DHT22;23441;50.856;6.076;2022-10-17T00:33:44;16.40;99.90
37594;DHT22;23441;50.856;6.076;2022-10-17T00:36:16;16.50;99.90
37594;DHT22;23441;50.856;6.076;2022-10-17T00:38:45;16.50;99.90
37594;DHT22;23441;50.856;6.076;2022-10-17T00:41:13;16.50;99.90
37594;DHT22;23441;50.856;6.076;2022-10-17T00:43:59;16.50;99.90
37594;DHT22;23441;50.856;6.076;2022-10-17T00:46:28;16.40;99.90
37594;DHT22;23441;50.856;6.076;2022-10-17T00:48:55;16.40;99.90
37594;DHT22;23441;50.856;6.076;2022-10-17T00:51:29;16.50;99.90
37594;DHT22;23441;50.856;6.076;2022-10-17T00:54:00;16.50;99.90
37594;DHT22;23441;50.856;6.076;2022-10-17T00:56:26;16.40;99.90
37594;DHT22;23441;50.856;6.076;2022-10-17T00:58:52;16.40;99.90
37594;DHT22;23441;50.856;6.076;2022-10-17T01:01:18;16.30;99.90
37594;DHT22;23441;50.856;6.076;2022-10-17T01:03:44;16.30;99.90
37594;DHT22;23441;50.856;6.076;2022-10-17T01:06:09;16.20;99.90
37594;DHT22;23441;50.856;6.076;2022-10-17T01:08:35;16.20;99.90
37594;DHT22;23441;50.856;6.076;2022-10-17T01:11:21;16.20;99.90
37594;DHT22;23441;50.856;6.076;2022-10-17T01:13:51;16.20;99.90
37594;DHT22;23441;50.856;6.076;2022-10-17T01:30:28;16.20;99.90
37594;DHT22;23441;50.856;6.076;2022-10-17T01:33:12;16.20;99.90
37594;DHT22;23441;50.856;6.076;2022-10-17T01:35:47;16.10;99.90
37594;DHT22;23441;50.856;6.076;2022-10-17T01:38:22;16.10;99.90
37594;DHT22;23441;50.856;6.076;2022-10-17T01:41:02;16.10;99.90
37594;DHT22;23441;50.856;6.076;2022-10-17T01:43:43;16.10;99.90
37594;DHT22;23441;50.856;6.076;2022-10-17T01:46:42;16.00;99.90
37594;DHT22;23441;50.856;6.076;2022-10-17T01:49:10;16.10;99.90
37594;DHT22;23441;50.856;6.076;2022-10-17T01:51:39;16.10;99.90
37594;DHT22;23441;50.856;6.076;2022-10-17T01:54:14;16.00;99.90
37594;DHT22;23441;50.856;6.076;2022-10-17T01:56:43;16.00;99.90
37594;DHT22;23441;50.856;6.076;2022-10-17T01:59:18;16.10;99.90
37594;DHT22;23441;50.856;6.076;2022-10-17T02:01:47;16.10;99.90
37594;DHT22;23441;50.856;6.076;2022-10-17T02:04:13;16.10;99.90
37594;DHT22;23441;50.856;6.076;2022-10-17T02:06:40;16.10;99.90
37594;DHT22;23441;50.856;6.076;2022-10-17T02:09:20;16.10;99.90
37594;DHT22;23441;50.856;6.076;2022-10-17T02:20:31;16.20;99.90
37594;DHT22;23441;50.856;6.076;2022-10-17T02:23:06;16.10;99.90
37594;DHT22;23441;50.856;6.076;2022-10-17T02:31:18;15.60;99.90
37594;DHT22;23441;50.856;6.076;2022-10-17T02:33:53;15.50;99.90
37594;DHT22;23441;50.856;6.076;2022-10-17T02:36:26;15.40;99.90
37594;DHT22;23441;50.856;6.076;2022-10-17T02:38:54;15.30;99.90
37594;DHT22;23441;50.856;6.076;2022-10-17T02:41:22;15.20;99.90
37594;DHT22;23441;50.856;6.076;2022-10-17T02:43:50;15.10;99.90
37594;DHT22;23441;50.856;6.076;2022-10-17T02:46:19;15.10;99.90
37594;DHT22;23441;50.856;6.076;2022-10-17T02:48:49;15.00;99.90
37594;DHT22;23441;50.856;6.076;2022-10-17T02:56:36;14.80;99.90
37594;DHT22;23441;50.856;6.076;2022-10-17T02:59:04;14.90;99.90
37594;DHT22;23441;50.856;6.076;2022-10-17T03:01:31;15.00;99.90
37594;DHT22;23441;50.856;6.076;2022-10-17T03:04:13;15.20;99.90
37594;DHT22;23441;50.856;6.076;2022-10-17T03:06:40;15.30;99.90
37594;DHT22;23441;50.856;6.076;2022-10-17T03:09:06;15.50;99.90
37594;DHT22;23441;50.856;6.076;2022-10-17T03:11:32;15.70;99.90
37594;DHT22;23441;50.856;6.076;2022-10-17T03:13:58;15.70;99.90
37594;DHT22;23441;50.856;6.076;2022-10-17T03:16:24;15.80;99.90
37594;DHT22;23441;50.856;6.076;2022-10-17T03:18:50;15.90;99.90
37594;DHT22;23441;50.856;6.076;2022-10-17T03:21:16;16.00;99.90
37594;DHT22;23441;50.856;6.076;2022-10-17T03:23:41;16.10;99.90
37594;DHT22;23441;50.856;6.076;2022-10-17T03:26:08;16.20;99.90
37594;DHT22;23441;50.856;6.076;2022-10-17T03:28:34;16.20;99.90
37594;DHT22;23441;50.856;6.076;2022-10-17T03:31:06;16.30;99.90
37594;DHT22;23441;50.856;6.076;2022-10-17T03:33:32;16.40;99.90
37594;DHT22;23441;50.856;6.076;2022-10-17T03:35:57;16.40;99.90
37594;DHT22;23441;50.856;6.076;2022-10-17T03:38:23;16.40;99.90
37594;DHT22;23441;50.856;6.076;2022-10-17T03:40:55;16.30;99.90
37594;DHT22;23441;50.856;6.076;2022-10-17T03:43:21;16.30;99.90
37594;DHT22;23441;50.856;6.076;2022-10-17T03:45:47;16.40;99.90
37594;DHT22;23441;50.856;6.076;2022-10-17T03:48:12;16.40;99.90
37594;DHT22;23441;50.856;6.076;2022-10-17T03:50:38;16.40;99.90
37594;DHT22;23441;50.856;6.076;2022-10-17T03:53:04;16.40;99.90
37594;DHT22;23441;50.856;6.076;2022-10-17T03:55:29;16.50;99.90
37594;DHT22;23441;50.856;6.076;2022-10-17T03:57:55;16.40;99.90
37594;DHT22;23441;50.856;6.076;2022-10-17T04:00:21;16.40;99.90
37594;DHT22;23441;50.856;6.076;2022-10-17T04:02:47;16.40;99.90
37594;DHT22;23441;50.856;6.076;2022-10-17T04:05:12;16.40;99.90
37594;DHT22;23441;50.856;6.076;2022-10-17T04:07:38;16.40;99.90
37594;DHT22;23441;50.856;6.076;2022-10-17T04:10:04;16.50;99.90
37594;DHT22;23441;50.856;6.076;2022-10-17T04:12:30;16.40;99.90
37594;DHT22;23441;50.856;6.076;2022-10-17T04:14:56;16.50;99.90
37594;DHT22;23441;50.856;6.076;2022-10-17T04:17:21;16.40;99.90
37594;DHT22;23441;50.856;6.076;2022-10-17T04:19:48;16.40;99.90
37594;DHT22;23441;50.856;6.076;2022-10-17T04:22:14;16.40;99.90
37594;DHT22;23441;50.856;6.076;2022-10-17T04:24:40;16.50;99.90
37594;DHT22;23441;50.856;6.076;2022-10-17T04:27:06;16.50;99.90
37594;DHT22;23441;50.856;6.076;2022-10-17T04:29:32;16.50;99.90
37594;DHT22;23441;50.856;6.076;2022-10-17T04:31:57;16.50;99.90
37594;DHT22;23441;50.856;6.076;2022-10-17T04:34:23;16.50;99.90
37594;DHT22;23441;50.856;6.076;2022-10-17T04:36:49;16.50;99.90
37594;DHT22;23441;50.856;6.076;2022-10-17T04:39:16;16.50;99.90
37594;DHT22;23441;50.856;6.076;2022-10-17T04:41:42;16.40;99.90
37594;DHT22;23441;50.856;6.076;2022-10-17T04:44:09;16.50;99.90
37594;DHT22;23441;50.856;6.076;2022-10-17T04:46:35;16.50;99.90
37594;DHT22;23441;50.856;6.076;2022-10-17T04:49:01;16.60;99.90
37594;DHT22;23441;50.856;6.076;2022-10-17T04:51:27;16.60;99.90
37594;DHT22;23441;50.856;6.076;2022-10-17T04:53:53;16.60;99.90
37594;DHT22;23441;50.856;6.076;2022-10-17T04:56:21;16.70;99.90
37594;DHT22;23441;50.856;6.076;2022-10-17T04:58:48;16.70;99.90
37594;DHT22;23441;50.856;6.076;2022-10-17T05:01:19;16.70;99.90
37594;DHT22;23441;50.856;6.076;2022-10-17T05:03:45;16.70;99.90
37594;DHT22;23441;50.856;6.076;2022-10-17T05:06:19;16.70;99.90
37594;DHT22;23441;50.856;6.076;2022-10-17T05:08:45;16.70;99.90
37594;DHT22;23441;50.856;6.076;2022-10-17T05:11:16;16.70;99.90
37594;DHT22;23441;50.856;6.076;2022-10-17T05:13:42;16.60;99.90
37594;DHT22;23441;50.856;6.076;2022-10-17T05:16:08;16.60;99.90
37594;DHT22;23441;50.856;6.076;2022-10-17T05:18:34;16.60;99.90
37594;DHT22;23441;50.856;6.076;2022-10-17T05:21:02;16.70;99.90
37594;DHT22;23441;50.856;6.076;2022-10-17T05:23:29;16.70;99.90
37594;DHT22;23441;50.856;6.076;2022-10-17T05:25:55;16.70;99.90
37594;DHT22;23441;50.856;6.076;2022-10-17T05:28:21;16.60;99.90
37594;DHT22;23441;50.856;6.076;2022-10-17T05:30:47;16.70;99.90
37594;DHT22;23441;50.856;6.076;2022-10-17T05:33:13;16.70;99.90
37594;DHT22;23441;50.856;6.076;2022-10-17T05:35:39;16.70;99.90
37594;DHT22;23441;50.856;6.076;2022-10-17T05:38:05;16.70;99.90
37594;DHT22;23441;50.856;6.076;2022-10-17T05:40:30;16.70;99.90
37594;DHT22;23441;50.856;6.076;2022-10-17T05:42:56;16.60;99.90
37594;DHT22;23441;50.856;6.076;2022-10-17T05:45:22;16.60;99.90
37594;DHT22;23441;50.856;6.076;2022-10-17T05:47:48;16.50;99.90
37594;DHT22;23441;50.856;6.076;2022-10-17T05:50:13;16.50;99.90
37594;DHT22;23441;50.856;6.076;2022-10-17T05:52:39;16.50;99.90
37594;DHT22;23441;50.856;6.076;2022-10-17T05:55:06;16.50;99.90
37594;DHT22;23441;50.856;6.076;2022-10-17T05:57:32;16.50;99.90
37594;DHT22;23441;50.856;6.076;2022-10-17T05:59:58;16.50;99.90
37594;DHT22;23441;50.856;6.076;2022-10-17T06:02:23;16.50;99.90
37594;DHT22;23441;50.856;6.076;2022-10-17T06:04:49;16.50;99.90
37594;DHT22;23441;50.856;6.076;2022-10-17T06:07:15;16.50;99.90
37594;DHT22;23441;50.856;6.076;2022-10-17T06:09:41;16.50;99.90
37594;DHT22;23441;50.856;6.076;2022-10-17T06:12:07;16.60;99.90
37594;DHT22;23441;50.856;6.076;2022-10-17T06:14:33;16.60;99.90
37594;DHT22;23441;50.856;6.076;2022-10-17T06:16:59;16.60;99.90
37594;DHT22;23441;50.856;6.076;2022-10-17T06:19:25;16.70;99.90
37594;DHT22;23441;50.856;6.076;2022-10-17T06:21:51;16.60;99.90
37594;DHT22;23441;50.856;6.076;2022-10-17T06:24:17;16.60;99.90
37594;DHT22;23441;50.856;6.076;2022-10-17T06:26:42;16.50;99.90
37594;DHT22;23441;50.856;6.076;2022-10-17T06:29:09;16.50;99.90
37594;DHT22;23441;50.856;6.076;2022-10-17T06:31:34;16.60;99.90
37594;DHT22;23441;50.856;6.076;2022-10-17T06:34:00;16.70;99.90
37594;DHT22;23441;50.856;6.076;2022-10-17T06:36:26;16.70;99.90
37594;DHT22;23441;50.856;6.076;2022-10-17T06:38:52;16.70;99.90
37594;DHT22;23441;50.856;6.076;2022-10-17T06:41:17;16.80;99.90
37594;DHT22;23441;50.856;6.076;2022-10-17T06:43:45;16.80;99.90
37594;DHT22;23441;50.856;6.076;2022-10-17T06:46:12;16.70;99.90
37594;DHT22;23441;50.856;6.076;2022-10-17T06:48:38;16.80;99.90
37594;DHT22;23441;50.856;6.076;2022-10-17T06:51:04;16.80;99.90
37594;DHT22;23441;50.856;6.076;2022-10-17T06:53:32;16.80;99.90
37594;DHT22;23441;50.856;6.076;2022-10-17T06:55:58;16.90;99.90
37594;DHT22;23441;50.856;6.076;2022-10-17T06:58:32;17.00;99.90
37594;DHT22;23441;50.856;6.076;2022-10-17T07:01:03;17.00;99.90
37594;DHT22;23441;50.856;6.076;2022-10-17T07:03:30;17.00;99.90
37594;DHT22;23441;50.856;6.076;2022-10-17T07:05:56;17.00;99.90
37594;DHT22;23441;50.856;6.076;2022-10-17T07:08:22;17.00;99.90
37594;DHT22;23441;50.856;6.076;2022-10-17T07:10:48;17.00;99.90
37594;DHT22;23441;50.856;6.076;2022-10-17T07:13:14;17.20;99.90
37594;DHT22;23441;50.856;6.076;2022-10-17T07:15:40;17.20;99.90
37594;DHT22;23441;50.856;6.076;2022-10-17T07:18:06;17.30;99.90
37594;DHT22;23441;50.856;6.076;2022-10-17T07:20:32;17.30;99.90
37594;DHT22;23441;50.856;6.076;2022-10-17T07:22:58;17.40;99.90
37594;DHT22;23441;50.856;6.076;2022-10-17T07:25:24;17.50;99.90
37594;DHT22;23441;50.856;6.076;2022-10-17T07:27:50;17.50;99.90
37594;DHT22;23441;50.856;6.076;2022-10-17T07:30:16;17.60;99.90
37594;DHT22;23441;50.856;6.076;2022-10-17T07:32:42;17.70;99.90
37594;DHT22;23441;50.856;6.076;2022-10-17T07:35:09;17.70;99.90
37594;DHT22;23441;50.856;6.076;2022-10-17T07:37:36;17.80;99.90
37594;DHT22;23441;50.856;6.076;2022-10-17T07:40:03;17.80;99.90
37594;DHT22;23441;50.856;6.076;2022-10-17T07:42:29;17.90;99.90
37594;DHT22;23441;50.856;6.076;2022-10-17T07:44:55;17.90;99.90
37594;DHT22;23441;50.856;6.076;2022-10-17T07:47:21;17.90;99.90
37594;DHT22;23441;50.856;6.076;2022-10-17T07:49:46;17.90;99.90
37594;DHT22;23441;50.856;6.076;2022-10-17T07:52:14;18.00;99.90
37594;DHT22;23441;50.856;6.076;2022-10-17T07:54:40;18.10;99.90
37594;DHT22;23441;50.856;6.076;2022-10-17T07:57:06;18.10;99.90
37594;DHT22;23441;50.856;6.076;2022-10-17T07:59:33;18.20;99.90
37594;DHT22;23441;50.856;6.076;2022-10-17T08:01:58;18.20;99.90
37594;DHT22;23441;50.856;6.076;2022-10-17T08:04:25;18.20;99.90
37594;DHT22;23441;50.856;6.076;2022-10-17T08:06:50;18.30;99.90
37594;DHT22;23441;50.856;6.076;2022-10-17T08:09:16;18.30;99.90
37594;DHT22;23441;50.856;6.076;2022-10-17T08:11:42;18.30;99.90
37594;DHT22;23441;50.856;6.076;2022-10-17T08:14:12;18.30;99.90
37594;DHT22;23441;50.856;6.076;2022-10-17T08:16:38;18.30;99.90
37594;DHT22;23441;50.856;6.076;2022-10-17T08:19:04;18.50;99.90
37594;DHT22;23441;50.856;6.076;2022-10-17T08:21:30;18.50;99.90
37594;DHT22;23441;50.856;6.076;2022-10-17T08:23:56;18.40;99.90
37594;DHT22;23441;50.856;6.076;2022-10-17T08:26:22;18.40;99.90
37594;DHT22;23441;50.856;6.076;2022-10-17T08:28:48;18.40;99.90
37594;DHT22;23441;50.856;6.076;2022-10-17T08:31:18;18.40;99.90
37594;DHT22;23441;50.856;6.076;2022-10-17T08:33:45;18.40;99.90
37594;DHT22;23441;50.856;6.076;2022-10-17T08:36:16;18.40;99.90
37594;DHT22;23441;50.856;6.076;2022-10-17T08:38:42;18.40;99.90
37594;DHT22;23441;50.856;6.076;2022-10-17T08:46:19;18.70;99.90
37594;DHT22;23441;50.856;6.076;2022-10-17T08:48:46;18.90;99.90
37594;DHT22;23441;50.856;6.076;2022-10-17T08:51:19;19.10;99.90
37594;DHT22;23441;50.856;6.076;2022-10-17T08:53:54;19.20;99.90
37594;DHT22;23441;50.856;6.076;2022-10-17T08:56:37;19.30;99.90
37594;DHT22;23441;50.856;6.076;2022-10-17T08:59:09;19.30;99.90
37594;DHT22;23441;50.856;6.076;2022-10-17T09:01:49;19.30;99.90
37594;DHT22;23441;50.856;6.076;2022-10-17T09:07:52;19.30;99.90
37594;DHT22;23441;50.856;6.076;2022-10-17T09:13:52;19.30;99.90
37594;DHT22;23441;50.856;6.076;2022-10-17T09:19:17;19.50;99.90
37594;DHT22;23441;50.856;6.076;2022-10-17T09:27:26;19.40;99.90
37594;DHT22;23441;50.856;6.076;2022-10-17T09:30:48;19.40;99.90
37594;DHT22;23441;50.856;6.076;2022-10-17T09:32:47;19.40;99.90
37594;DHT22;23441;50.856;6.076;2022-10-17T09:35:14;19.30;99.90
37594;DHT22;23441;50.856;6.076;2022-10-17T09:37:40;19.10;99.90
37594;DHT22;23441;50.856;6.076;2022-10-17T09:40:11;19.10;99.90
37594;DHT22;23441;50.856;6.076;2022-10-17T09:42:38;19.10;99.90
37594;DHT22;23441;50.856;6.076;2022-10-17T09:45:16;19.10;99.90
37594;DHT22;23441;50.856;6.076;2022-10-17T09:47:52;19.00;99.90
37594;DHT22;23441;50.856;6.076;2022-10-17T09:50:28;19.00;99.90
37594;DHT22;23441;50.856;6.076;2022-10-17T09:52:56;18.90;99.90
37594;DHT22;23441;50.856;6.076;2022-10-17T09:55:38;19.00;99.90
37594;DHT22;23441;50.856;6.076;2022-10-17T09:58:07;19.00;99.90
37594;DHT22;23441;50.856;6.076;2022-10-17T10:03:21;19.10;99.90
37594;DHT22;23441;50.856;6.076;2022-10-17T10:06:18;19.10;99.90
37594;DHT22;23441;50.856;6.076;2022-10-17T10:11:21;19.30;99.90
37594;DHT22;23441;50.856;6.076;2022-10-17T10:13:48;19.30;99.90
37594;DHT22;23441;50.856;6.076;2022-10-17T10:16:31;19.40;99.90
37594;DHT22;23441;50.856;6.076;2022-10-17T10:18:57;19.40;99.90
37594;DHT22;23441;50.856;6.076;2022-10-17T10:21:25;19.40;99.90
37594;DHT22;23441;50.856;6.076;2022-10-17T10:24:12;19.40;99.90
37594;DHT22;23441;50.856;6.076;2022-10-17T10:26:44;19.30;99.90
37594;DHT22;23441;50.856;6.076;2022-10-17T10:29:25;19.30;99.90
37594;DHT22;23441;50.856;6.076;2022-10-17T10:34:56;19.30;99.90
37594;DHT22;23441;50.856;6.076;2022-10-17T10:37:44;19.30;99.90
37594;DHT22;23441;50.856;6.076;2022-10-17T10:40:21;19.30;99.90
37594;DHT22;23441;50.856;6.076;2022-10-17T10:42:59;19.30;99.90
37594;DHT22;23441;50.856;6.076;2022-10-17T10:48:02;19.50;99.90
37594;DHT22;23441;50.856;6.076;2022-10-17T10:50:36;19.50;99.90
37594;DHT22;23441;50.856;6.076;2022-10-17T10:53:35;19.60;99.90
37594;DHT22;23441;50.856;6.076;2022-10-17T10:56:17;19.60;99.90
37594;DHT22;23441;50.856;6.076;2022-10-17T11:02:03;19.80;99.90
37594;DHT22;23441;50.856;6.076;2022-10-17T11:04:43;20.10;99.90
37594;DHT22;23441;50.856;6.076;2022-10-17T11:07:27;20.30;99.90
37594;DHT22;23441;50.856;6.076;2022-10-17T11:10:16;20.30;99.90
37594;DHT22;23441;50.856;6.076;2022-10-17T11:12:58;20.40;99.90
37594;DHT22;23441;50.856;6.076;2022-10-17T11:15:51;20.40;99.90
37594;DHT22;23441;50.856;6.076;2022-10-17T11:18:27;20.40;99.90
37594;DHT22;23441;50.856;6.076;2022-10-17T11:21:05;20.50;99.90
37594;DHT22;23441;50.856;6.076;2022-10-17T11:23:47;20.50;99.90
37594;DHT22;23441;50.856;6.076;2022-10-17T11:26:26;20.50;99.90
37594;DHT22;23441;50.856;6.076;2022-10-17T11:28:54;20.60;99.90
37594;DHT22;23441;50.856;6.076;2022-10-17T11:31:22;20.60;99.90
37594;DHT22;23441;50.856;6.076;2022-10-17T11:34:35;20.60;99.90
37594;DHT22;23441;50.856;6.076;2022-10-17T11:36:46;20.50;99.90
37594;DHT22;23441;50.856;6.076;2022-10-17T11:39:18;20.40;99.90
37594;DHT22;23441;50.856;6.076;2022-10-17T11:41:51;20.50;99.90
37594;DHT22;23441;50.856;6.076;2022-10-17T11:44:24;20.50;99.90
37594;DHT22;23441;50.856;6.076;2022-10-17T11:46:57;20.50;99.90
37594;DHT22;23441;50.856;6.076;2022-10-17T11:49:30;20.50;99.90
37594;DHT22;23441;50.856;6.076;2022-10-17T11:52:25;20.50;99.90
37594;DHT22;23441;50.856;6.076;2022-10-17T11:54:54;20.50;99.90
37594;DHT22;23441;50.856;6.076;2022-10-17T12:00:29;20.40;99.90
37594;DHT22;23441;50.856;6.076;2022-10-17T12:06:12;20.40;99.90
37594;DHT22;23441;50.856;6.076;2022-10-17T12:09:06;20.30;99.90
37594;DHT22;23441;50.856;6.076;2022-10-17T12:11:41;20.40;99.90
37594;DHT22;23441;50.856;6.076;2022-10-17T12:16:54;20.40;99.90
37594;DHT22;23441;50.856;6.076;2022-10-17T12:19:23;20.40;99.90
37594;DHT22;23441;50.856;6.076;2022-10-17T12:22:40;20.40;99.90
37594;DHT22;23441;50.856;6.076;2022-10-17T12:24:58;20.30;99.90
37594;DHT22;23441;50.856;6.076;2022-10-17T12:32:31;20.10;99.90
37594;DHT22;23441;50.856;6.076;2022-10-17T12:34:58;20.10;99.90
37594;DHT22;23441;50.856;6.076;2022-10-17T12:46:00;20.10;99.90
37594;DHT22;23441;50.856;6.076;2022-10-17T12:51:16;20.00;99.90
37594;DHT22;23441;50.856;6.076;2022-10-17T12:56:30;19.90;99.90
37594;DHT22;23441;50.856;6.076;2022-10-17T12:58:57;19.90;99.90
37594;DHT22;23441;50.856;6.076;2022-10-17T13:01:29;19.90;99.90
37594;DHT22;23441;50.856;6.076;2022-10-17T13:03:56;19.90;99.90
37594;DHT22;23441;50.856;6.076;2022-10-17T13:06:27;19.90;99.90
37594;DHT22;23441;50.856;6.076;2022-10-17T13:09:03;19.80;99.90
37594;DHT22;23441;50.856;6.076;2022-10-17T13:11:31;19.80;99.90
37594;DHT22;23441;50.856;6.076;2022-10-17T13:14:01;19.80;99.90
37594;DHT22;23441;50.856;6.076;2022-10-17T13:16:50;19.70;99.90
37594;DHT22;23441;50.856;6.076;2022-10-17T13:19:19;19.80;99.90
37594;DHT22;23441;50.856;6.076;2022-10-17T13:21:55;19.70;99.90
37594;DHT22;23441;50.856;6.076;2022-10-17T13:24:27;19.70;99.90
37594;DHT22;23441;50.856;6.076;2022-10-17T13:26:54;19.80;99.90
37594;DHT22;23441;50.856;6.076;2022-10-17T13:29:19;19.80;99.90
37594;DHT22;23441;50.856;6.076;2022-10-17T13:31:52;19.80;99.90
37594;DHT22;23441;50.856;6.076;2022-10-17T13:34:24;19.80;99.90
37594;DHT22;23441;50.856;6.076;2022-10-17T13:36:53;19.80;99.90
37594;DHT22;23441;50.856;6.076;2022-10-17T13:39:22;19.90;99.90
37594;DHT22;23441;50.856;6.076;2022-10-17T13:41:50;19.90;99.90
37594;DHT22;23441;50.856;6.076;2022-10-17T13:44:21;19.80;99.90
37594;DHT22;23441;50.856;6.076;2022-10-17T13:46:48;19.80;99.90
37594;DHT22;23441;50.856;6.076;2022-10-17T13:49:40;19.80;99.90
37594;DHT22;23441;50.856;6.076;2022-10-17T13:52:15;19.80;99.90
37594;DHT22;23441;50.856;6.076;2022-10-17T13:54:45;19.80;99.90
37594;DHT22;23441;50.856;6.076;2022-10-17T13:57:24;19.80;99.90
37594;DHT22;23441;50.856;6.076;2022-10-17T14:00:17;19.70;99.90
37594;DHT22;23441;50.856;6.076;2022-10-17T14:02:44;19.60;99.90
37594;DHT22;23441;50.856;6.076;2022-10-17T14:05:16;19.60;99.90
37594;DHT22;23441;50.856;6.076;2022-10-17T14:07:52;19.60;99.90
37594;DHT22;23441;50.856;6.076;2022-10-17T14:10:30;19.60;99.90
37594;DHT22;23441;50.856;6.076;2022-10-17T14:12:59;19.60;99.90
37594;DHT22;23441;50.856;6.076;2022-10-17T14:15:28;19.60;99.90
37594;DHT22;23441;50.856;6.076;2022-10-17T14:18:00;19.60;99.90
37594;DHT22;23441;50.856;6.076;2022-10-17T14:20:26;19.60;99.90
37594;DHT22;23441;50.856;6.076;2022-10-17T14:22:57;19.70;99.90
37594;DHT22;23441;50.856;6.076;2022-10-17T14:25:37;19.60;99.90
37594;DHT22;23441;50.856;6.076;2022-10-17T14:30:37;19.60;99.90
37594;DHT22;23441;50.856;6.076;2022-10-17T14:33:07;19.60;99.90
37594;DHT22;23441;50.856;6.076;2022-10-17T14:35:34;19.50;99.90
37594;DHT22;23441;50.856;6.076;2022-10-17T14:38:02;19.40;99.90
37594;DHT22;23441;50.856;6.076;2022-10-17T14:40:30;19.40;99.90
37594;DHT22;23441;50.856;6.076;2022-10-17T14:42:59;19.30;99.90
37594;DHT22;23441;50.856;6.076;2022-10-17T14:45:31;19.30;99.90
37594;DHT22;23441;50.856;6.076;2022-10-17T14:48:10;19.30;99.90
37594;DHT22;23441;50.856;6.076;2022-10-17T14:50:38;19.10;99.90
37594;DHT22;23441;50.856;6.076;2022-10-17T14:55:38;18.90;99.90
37594;DHT22;23441;50.856;6.076;2022-10-17T14:58:24;18.80;99.90
37594;DHT22;23441;50.856;6.076;2022-10-17T15:00:52;18.80;99.90
37594;DHT22;23441;50.856;6.076;2022-10-17T15:03:18;18.80;99.90
37594;DHT22;23441;50.856;6.076;2022-10-17T15:05:45;18.80;99.90
37594;DHT22;23441;50.856;6.076;2022-10-17T15:08:13;18.80;99.90
37594;DHT22;23441;50.856;6.076;2022-10-17T15:10:40;18.70;99.90
37594;DHT22;23441;50.856;6.076;2022-10-17T15:13:10;18.60;99.90
37594;DHT22;23441;50.856;6.076;2022-10-17T15:15:38;18.60;99.90
37594;DHT22;23441;50.856;6.076;2022-10-17T15:18:04;18.60;99.90
37594;DHT22;23441;50.856;6.076;2022-10-17T15:20:30;18.50;99.90
37594;DHT22;23441;50.856;6.076;2022-10-17T15:22:58;18.40;99.90
37594;DHT22;23441;50.856;6.076;2022-10-17T15:25:25;18.30;99.90
37594;DHT22;23441;50.856;6.076;2022-10-17T15:27:52;18.30;99.90
37594;DHT22;23441;50.856;6.076;2022-10-17T15:30:28;18.10;99.90
37594;DHT22;23441;50.856;6.076;2022-10-17T15:32:56;18.10;99.90
37594;DHT22;23441;50.856;6.076;2022-10-17T15:35:22;18.00;99.90
37594;DHT22;23441;50.856;6.076;2022-10-17T15:37:48;18.00;99.90
37594;DHT22;23441;50.856;6.076;2022-10-17T15:40:24;17.90;99.90
37594;DHT22;23441;50.856;6.076;2022-10-17T15:42:50;17.80;99.90
37594;DHT22;23441;50.856;6.076;2022-10-17T15:45:18;17.80;99.90
37594;DHT22;23441;50.856;6.076;2022-10-17T15:47:54;17.70;99.90
37594;DHT22;23441;50.856;6.076;2022-10-17T15:50:21;17.70;99.90
37594;DHT22;23441;50.856;6.076;2022-10-17T15:52:48;17.60;99.90
37594;DHT22;23441;50.856;6.076;2022-10-17T15:55:16;17.60;99.90
37594;DHT22;23441;50.856;6.076;2022-10-17T15:57:43;17.50;99.90
37594;DHT22;23441;50.856;6.076;2022-10-17T16:00:21;17.40;99.90
37594;DHT22;23441;50.856;6.076;2022-10-17T16:02:47;17.40;99.90
37594;DHT22;23441;50.856;6.076;2022-10-17T16:05:22;17.30;99.90
37594;DHT22;23441;50.856;6.076;2022-10-17T16:07:51;17.20;99.90
37594;DHT22;23441;50.856;6.076;2022-10-17T16:10:17;17.20;99.90
37594;DHT22;23441;50.856;6.076;2022-10-17T16:12:43;17.10;99.90
37594;DHT22;23441;50.856;6.076;2022-10-17T16:15:14;17.10;99.90
37594;DHT22;23441;50.856;6.076;2022-10-17T16:17:40;17.10;99.90
37594;DHT22;23441;50.856;6.076;2022-10-17T16:20:07;17.10;99.90
37594;DHT22;23441;50.856;6.076;2022-10-17T16:22:33;17.00;99.90
37594;DHT22;23441;50.856;6.076;2022-10-17T16:25:09;17.00;99.90
37594;DHT22;23441;50.856;6.076;2022-10-17T16:27:44;17.00;99.90
37594;DHT22;23441;50.856;6.076;2022-10-17T16:30:11;17.00;99.90
37594;DHT22;23441;50.856;6.076;2022-10-17T16:32:37;16.90;99.90
37594;DHT22;23441;50.856;6.076;2022-10-17T16:35:04;16.90;99.90
37594;DHT22;23441;50.856;6.076;2022-10-17T16:37:30;16.80;99.90
37594;DHT22;23441;50.856;6.076;2022-10-17T16:39:56;16.80;99.90
37594;DHT22;23441;50.856;6.076;2022-10-17T16:42:22;16.80;99.90
37594;DHT22;23441;50.856;6.076;2022-10-17T16:44:49;16.80;99.90
37594;DHT22;23441;50.856;6.076;2022-10-17T16:47:16;16.70;99.90
37594;DHT22;23441;50.856;6.076;2022-10-17T16:49:42;16.80;99.90
37594;DHT22;23441;50.856;6.076;2022-10-17T16:52:08;16.80;99.90
37594;DHT22;23441;50.856;6.076;2022-10-17T16:54:34;16.70;99.90
37594;DHT22;23441;50.856;6.076;2022-10-17T16:57:00;16.70;99.90
37594;DHT22;23441;50.856;6.076;2022-10-17T16:59:27;16.70;99.90
37594;DHT22;23441;50.856;6.076;2022-10-17T17:01:53;16.60;99.90
37594;DHT22;23441;50.856;6.076;2022-10-17T17:04:19;16.70;99.90
37594;DHT22;23441;50.856;6.076;2022-10-17T17:06:45;16.70;99.90
37594;DHT22;23441;50.856;6.076;2022-10-17T17:09:11;16.70;99.90
37594;DHT22;23441;50.856;6.076;2022-10-17T17:11:37;16.60;99.90
37594;DHT22;23441;50.856;6.076;2022-10-17T17:14:04;16.60;99.90
37594;DHT22;23441;50.856;6.076;2022-10-17T17:16:31;16.50;99.90
37594;DHT22;23441;50.856;6.076;2022-10-17T17:19:32;16.50;99.90
37594;DHT22;23441;50.856;6.076;2022-10-17T17:21:50;16.50;99.90
37594;DHT22;23441;50.856;6.076;2022-10-17T17:24:17;16.40;99.90
37594;DHT22;23441;50.856;6.076;2022-10-17T17:26:49;16.40;99.90
37594;DHT22;23441;50.856;6.076;2022-10-17T17:29:15;16.40;99.90